sensor_id;sensor_type;location;lat;lon;timestamp;pressure;altitude;pressure_sealevel;temperature;humidity
22775;BME280;11554;51.106;3.684;2023-05-10T00:00:00;100871.8;;;11.26;100.0
22775;BME280;11554;51.106;3.684;2023-05-10T00:05:00;100865.28;;;11.24;100.0
22775;BME280;11554;51.106;3.684;2023-05-10T00:10:00;100875.76000000001;;;11.27;100.0
22775;BME280;11554;51.106;3.684;2023-05-10T00:15:00;100881.83;;;11.33;100.0
22775;BME280;11554;51.106;3.684;2023-05-10T00:20:00;100873.75;;;11.42;100.0
22775;BME280;11554;51.106;3.684;2023-05-10T00:25:00;100867.33;;;11.49;100.0
22775;BME280;11554;51.106;3.684;2023-05-10T00:30:00;100862.59;;;11.54;100.0
22775;BME280;11554;51.106;3.684;2023-05-10T00:35:00;100859.45;;;11.58;100.0
22775;BME280;11554;51.106;3.684;2023-05-10T00:40:00;100862.86;;;11.60;100.0
22775;BME280;11554;51.106;3.684;2023-05-10T00:45:00;100873.86;;;11.64;100.0
22775;BME280;11554;51.106;3.684;2023-05-10T00:50:00;100878.08;;;11.68;100.0
22775;BME280;11554;51.106;3.684;2023-05-10T00:55:00;100876.76;;;11.71;100.0
22775;BME280;11554;51.106;3.684;2023-05-10T01:00:00;100874.75;;;11.74;100.0
22775;BME280;11554;51.106;3.684;2023-05-10T01:05:00;100879.45999999999;;;11.76;100.0
22775;BME280;11554;51.106;3.684;2023-05-10T01:10:00;100877.42;;;11.77;100.0
22775;BME280;11554;51.106;3.684;2023-05-10T01:15:00;100878.92;;;11.75;100.0
22775;BME280;11554;51.106;3.684;2023-05-10T01:20:00;100881.14;;;11.75;100.0
22775;BME280;11554;51.106;3.684;2023-05-10T01:30:04;100899.27;;;11.69;100.0
22775;BME280;11554;51.106;3.684;2023-05-10T01:35:01;100898.38;;;11.69;100.0
22775;BME280;11554;51.106;3.684;2023-05-10T01:40:01;100902.44;;;11.69;100.0
22775;BME280;11554;51.106;3.684;2023-05-10T01:45:03;100903.11;;;11.70;100.0
22775;BME280;11554;51.106;3.684;2023-05-10T01:50:01;100907.53;;;11.70;100.0
22775;BME280;11554;51.106;3.684;2023-05-10T01:55:01;100916.44;;;11.69;100.0
22775;BME280;11554;51.106;3.684;2023-05-10T02:00:01;100926.26000000001;;;11.69;100.0
22775;BME280;11554;51.106;3.684;2023-05-10T02:05:00;100926.73;;;11.67;100.0
22775;BME280;11554;51.106;3.684;2023-05-10T02:10:00;100931.03;;;11.64;100.0
22775;BME280;11554;51.106;3.684;2023-05-10T02:15:00;100932.05;;;11.62;100.0
22775;BME280;11554;51.106;3.684;2023-05-10T02:20:00;100939.34000000001;;;11.62;100.0
22775;BME280;11554;51.106;3.684;2023-05-10T02:25:00;100942.48999999999;;;11.61;100.0
22775;BME280;11554;51.106;3.684;2023-05-10T02:30:00;100944.25;;;11.60;100.0
22775;BME280;11554;51.106;3.684;2023-05-10T02:35:00;100942.86;;;11.58;100.0
22775;BME280;11554;51.106;3.684;2023-05-10T02:40:00;100948.89;;;11.60;100.0
22775;BME280;11554;51.106;3.684;2023-05-10T02:45:01;100955.74;;;11.61;100.0
22775;BME280;11554;51.106;3.684;2023-05-10T02:50:00;100960.36;;;11.61;100.0
22775;BME280;11554;51.106;3.684;2023-05-10T02:55:01;100958.26;;;11.63;100.0
22775;BME280;11554;51.106;3.684;2023-05-10T03:00:00;100960.89;;;11.63;100.0
22775;BME280;11554;51.106;3.684;2023-05-10T03:05:00;100962.77;;;11.64;100.0
22775;BME280;11554;51.106;3.684;2023-05-10T03:10:00;100965.06000000001;;;11.64;100.0
22775;BME280;11554;51.106;3.684;2023-05-10T03:15:01;100960.26000000001;;;11.64;100.0
22775;BME280;11554;51.106;3.684;2023-05-10T03:20:03;100969.87000000001;;;11.64;100.0
22775;BME280;11554;51.106;3.684;2023-05-10T03:25:00;100969.5;;;11.63;100.0
22775;BME280;11554;51.106;3.684;2023-05-10T03:30:00;100973.20999999999;;;11.62;100.0
22775;BME280;11554;51.106;3.684;2023-05-10T03:35:00;100971.40000000001;;;11.60;100.0
22775;BME280;11554;51.106;3.684;2023-05-10T03:40:00;100975.81999999999;;;11.57;100.0
22775;BME280;11554;51.106;3.684;2023-05-10T03:45:00;100980.83;;;11.54;100.0
22775;BME280;11554;51.106;3.684;2023-05-10T03:50:00;100983.68000000001;;;11.49;100.0
22775;BME280;11554;51.106;3.684;2023-05-10T03:55:00;100988.4;;;11.40;100.0
22775;BME280;11554;51.106;3.684;2023-05-10T04:00:00;100993.57;;;11.40;100.0
22775;BME280;11554;51.106;3.684;2023-05-10T04:05:00;100992.52;;;11.43;100.0
22775;BME280;11554;51.106;3.684;2023-05-10T04:10:00;100988.45;;;11.45;100.0
22775;BME280;11554;51.106;3.684;2023-05-10T04:15:00;100996.95;;;11.45;100.0
22775;BME280;11554;51.106;3.684;2023-05-10T04:20:00;100992.26999999999;;;11.48;100.0
22775;BME280;11554;51.106;3.684;2023-05-10T04:25:00;100995.56;;;11.53;100.0
22775;BME280;11554;51.106;3.684;2023-05-10T04:30:00;100994.83;;;11.57;100.0
22775;BME280;11554;51.106;3.684;2023-05-10T04:35:00;100994.54;;;11.59;100.0
22775;BME280;11554;51.106;3.684;2023-05-10T04:40:00;100999.11;;;11.62;100.0
22775;BME280;11554;51.106;3.684;2023-05-10T04:45:00;101002.12;;;11.65;100.0
22775;BME280;11554;51.106;3.684;2023-05-10T04:50:00;100999.37;;;11.67;100.0
22775;BME280;11554;51.106;3.684;2023-05-10T04:55:00;101000.8;;;11.68;100.0
22775;BME280;11554;51.106;3.684;2023-05-10T05:00:00;101006.46;;;11.73;100.0
22775;BME280;11554;51.106;3.684;2023-05-10T05:05:00;101010.03;;;11.75;100.0
22775;BME280;11554;51.106;3.684;2023-05-10T05:10:00;101009.2;;;11.81;100.0
22775;BME280;11554;51.106;3.684;2023-05-10T05:15:00;101009.17;;;11.92;100.0
22775;BME280;11554;51.106;3.684;2023-05-10T05:20:00;101015.05;;;12.00;100.0
22775;BME280;11554;51.106;3.684;2023-05-10T05:25:00;101019.26;;;12.07;100.0
22775;BME280;11554;51.106;3.684;2023-05-10T05:30:00;101022.13;;;12.11;100.0
22775;BME280;11554;51.106;3.684;2023-05-10T05:35:00;101024.91;;;12.17;100.0
22775;BME280;11554;51.106;3.684;2023-05-10T05:40:00;101031.26999999999;;;12.29;100.0
22775;BME280;11554;51.106;3.684;2023-05-10T05:45:00;101037.77;;;12.43;100.0
22775;BME280;11554;51.106;3.684;2023-05-10T05:50:00;101039.45;;;12.51;100.0
22775;BME280;11554;51.106;3.684;2023-05-10T05:55:00;101042.66;;;12.59;100.0
22775;BME280;11554;51.106;3.684;2023-05-10T06:00:00;101046.73;;;12.63;100.0
22775;BME280;11554;51.106;3.684;2023-05-10T06:05:00;101045.76;;;12.71;100.0
22775;BME280;11554;51.106;3.684;2023-05-10T06:10:00;101052.89;;;12.74;100.0
22775;BME280;11554;51.106;3.684;2023-05-10T06:15:00;101058.29;;;12.93;100.0
22775;BME280;11554;51.106;3.684;2023-05-10T06:20:00;101064.79000000001;;;13.16;100.0
22775;BME280;11554;51.106;3.684;2023-05-10T06:25:00;101068.5;;;13.15;100.0
22775;BME280;11554;51.106;3.684;2023-05-10T06:30:00;101075.2;;;13.10;100.0
22775;BME280;11554;51.106;3.684;2023-05-10T06:35:00;101079.98999999999;;;13.45;100.0
22775;BME280;11554;51.106;3.684;2023-05-10T06:40:00;101078.3;;;13.74;100.0
22775;BME280;11554;51.106;3.684;2023-05-10T06:45:00;101078.58;;;13.94;100.0
22775;BME280;11554;51.106;3.684;2023-05-10T06:50:00;101083.04000000001;;;14.05;100.0
22775;BME280;11554;51.106;3.684;2023-05-10T06:55:00;101084.64;;;14.55;100.0
22775;BME280;11554;51.106;3.684;2023-05-10T07:00:00;101090.55;;;14.77;100.0
22775;BME280;11554;51.106;3.684;2023-05-10T07:05:00;101094.7;;;14.48;100.0
22775;BME280;11554;51.106;3.684;2023-05-10T07:10:00;101099.18000000001;;;14.31;100.0
22775;BME280;11554;51.106;3.684;2023-05-10T07:15:00;101105.25;;;14.11;100.0
22775;BME280;11554;51.106;3.684;2023-05-10T07:20:00;101107.44;;;14.13;100.0
22775;BME280;11554;51.106;3.684;2023-05-10T07:25:00;101101.62;;;14.03;100.0
22775;BME280;11554;51.106;3.684;2023-05-10T07:30:00;101105.68;;;14.17;100.0
22775;BME280;11554;51.106;3.684;2023-05-10T07:35:00;101106.5;;;14.32;100.0
22775;BME280;11554;51.106;3.684;2023-05-10T07:40:00;101104.43000000001;;;15.10;100.0
22775;BME280;11554;51.106;3.684;2023-05-10T07:45:00;101110.19;;;15.31;100.0
22775;BME280;11554;51.106;3.684;2023-05-10T07:50:00;101113.01;;;16.36;100.0
22775;BME280;11554;51.106;3.684;2023-05-10T07:55:00;101119.75;;;16.13;100.0
22775;BME280;11554;51.106;3.684;2023-05-10T08:00:00;101114.5;;;17.32;100.0
22775;BME280;11554;51.106;3.684;2023-05-10T08:05:00;101115.16;;;16.84;100.0
22775;BME280;11554;51.106;3.684;2023-05-10T08:10:00;101126.78;;;16.36;100.0
22775;BME280;11554;51.106;3.684;2023-05-10T08:15:00;101128.06;;;15.98;100.0
22775;BME280;11554;51.106;3.684;2023-05-10T08:20:00;101137.23999999999;;;15.94;100.0
22775;BME280;11554;51.106;3.684;2023-05-10T08:25:00;101137.59999999999;;;15.60;100.0
22775;BME280;11554;51.106;3.684;2023-05-10T08:30:00;101141.16;;;15.70;100.0
22775;BME280;11554;51.106;3.684;2023-05-10T08:35:00;101147.13;;;16.22;100.0
22775;BME280;11554;51.106;3.684;2023-05-10T08:40:00;101150.05;;;16.50;100.0
22775;BME280;11554;51.106;3.684;2023-05-10T08:45:00;101154.0;;;16.51;100.0
22775;BME280;11554;51.106;3.684;2023-05-10T08:50:00;101159.63;;;16.30;100.0
22775;BME280;11554;51.106;3.684;2023-05-10T08:55:00;101157.05;;;17.00;100.0
22775;BME280;11554;51.106;3.684;2023-05-10T09:00:00;101162.25;;;17.60;100.0
22775;BME280;11554;51.106;3.684;2023-05-10T09:05:00;101161.03;;;17.82;100.0
22775;BME280;11554;51.106;3.684;2023-05-10T09:10:00;101167.81;;;17.34;98.74
22775;BME280;11554;51.106;3.684;2023-05-10T09:15:00;101169.62;;;16.79;100.0
22775;BME280;11554;51.106;3.684;2023-05-10T09:20:00;101178.25;;;16.66;100.0
22775;BME280;11554;51.106;3.684;2023-05-10T09:25:04;101176.12000000001;;;16.80;100.0
22775;BME280;11554;51.106;3.684;2023-05-10T09:30:00;101177.64;;;17.73;100.0
22775;BME280;11554;51.106;3.684;2023-05-10T09:35:05;101180.55;;;19.01;98.49
22775;BME280;11554;51.106;3.684;2023-05-10T09:40:00;101184.45;;;18.80;91.7
22775;BME280;11554;51.106;3.684;2023-05-10T09:45:01;101182.56;;;18.30;94.58
22775;BME280;11554;51.106;3.684;2023-05-10T09:50:00;101184.55;;;18.25;95.65
22775;BME280;11554;51.106;3.684;2023-05-10T09:55:00;101185.25;;;18.82;94.82
22775;BME280;11554;51.106;3.684;2023-05-10T10:00:00;101184.88;;;19.31;95.79
22775;BME280;11554;51.106;3.684;2023-05-10T10:05:00;101184.79999999999;;;19.66;92.97
22775;BME280;11554;51.106;3.684;2023-05-10T10:10:00;101189.92;;;19.57;93.17
22775;BME280;11554;51.106;3.684;2023-05-10T10:15:00;101193.73000000001;;;20.58;88.21
22775;BME280;11554;51.106;3.684;2023-05-10T10:20:01;101192.7;;;19.94;88.08
22775;BME280;11554;51.106;3.684;2023-05-10T10:25:00;101193.15000000001;;;19.37;88.88
22775;BME280;11554;51.106;3.684;2023-05-10T10:30:02;101194.59000000001;;;18.90;91.09
22775;BME280;11554;51.106;3.684;2023-05-10T10:35:00;101195.33;;;18.18;91.37
22775;BME280;11554;51.106;3.684;2023-05-10T10:40:00;101187.59999999999;;;17.83;95.55
22775;BME280;11554;51.106;3.684;2023-05-10T10:50:04;101192.44;;;17.33;98.04
22775;BME280;11554;51.106;3.684;2023-05-10T10:55:01;101198.19;;;17.10;98.32
22775;BME280;11554;51.106;3.684;2023-05-10T11:05:10;101200.03;;;16.62;98.92
22775;BME280;11554;51.106;3.684;2023-05-10T11:10:03;101205.81;;;16.31;100.0
22775;BME280;11554;51.106;3.684;2023-05-10T11:15:00;101207.69;;;15.84;100.0
22775;BME280;11554;51.106;3.684;2023-05-10T11:20:07;101207.34;;;15.65;100.0
22775;BME280;11554;51.106;3.684;2023-05-10T11:25:00;101209.63;;;15.87;100.0
22775;BME280;11554;51.106;3.684;2023-05-10T11:30:00;101213.86;;;16.00;100.0
22775;BME280;11554;51.106;3.684;2023-05-10T11:35:05;101213.62000000001;;;16.33;100.0
22775;BME280;11554;51.106;3.684;2023-05-10T11:40:00;101216.3;;;16.77;100.0
22775;BME280;11554;51.106;3.684;2023-05-10T11:45:00;101208.81000000001;;;17.43;100.0
22775;BME280;11554;51.106;3.684;2023-05-10T11:50:00;101201.45999999999;;;17.89;100.0
22775;BME280;11554;51.106;3.684;2023-05-10T11:55:00;101205.53;;;18.51;100.0
22775;BME280;11554;51.106;3.684;2023-05-10T12:00:00;101202.26;;;18.97;100.0
22775;BME280;11554;51.106;3.684;2023-05-10T12:05:00;101194.33;;;18.79;99.51
22775;BME280;11554;51.106;3.684;2023-05-10T12:10:05;101194.56;;;18.67;100.0
22775;BME280;11554;51.106;3.684;2023-05-10T12:15:01;101205.52;;;18.87;99.8
22775;BME280;11554;51.106;3.684;2023-05-10T12:25:00;101212.37;;;17.58;100.0
22775;BME280;11554;51.106;3.684;2023-05-10T12:30:00;101209.22;;;17.26;100.0
22775;BME280;11554;51.106;3.684;2023-05-10T12:35:00;101216.54;;;17.07;100.0
22775;BME280;11554;51.106;3.684;2023-05-10T12:40:00;101222.2;;;16.69;100.0
22775;BME280;11554;51.106;3.684;2023-05-10T12:45:00;101221.17;;;16.34;100.0
22775;BME280;11554;51.106;3.684;2023-05-10T12:50:01;101221.98;;;15.82;100.0
22775;BME280;11554;51.106;3.684;2023-05-10T12:55:00;101228.89;;;15.48;100.0
22775;BME280;11554;51.106;3.684;2023-05-10T13:00:00;101231.66;;;15.15;100.0
22775;BME280;11554;51.106;3.684;2023-05-10T13:05:00;101235.55;;;15.09;100.0
22775;BME280;11554;51.106;3.684;2023-05-10T13:10:00;101235.61;;;15.07;100.0
22775;BME280;11554;51.106;3.684;2023-05-10T13:15:00;101242.97;;;15.17;100.0
22775;BME280;11554;51.106;3.684;2023-05-10T13:20:00;101236.83;;;15.28;100.0
22775;BME280;11554;51.106;3.684;2023-05-10T13:25:00;101240.05;;;15.48;100.0
22775;BME280;11554;51.106;3.684;2023-05-10T13:30:00;101241.33;;;15.66;100.0
22775;BME280;11554;51.106;3.684;2023-05-10T13:35:00;101246.77;;;15.59;100.0
22775;BME280;11554;51.106;3.684;2023-05-10T13:40:00;101249.7;;;15.64;100.0
22775;BME280;11554;51.106;3.684;2023-05-10T13:45:00;101254.39;;;15.69;100.0
22775;BME280;11554;51.106;3.684;2023-05-10T13:50:00;101254.83;;;15.60;100.0
22775;BME280;11554;51.106;3.684;2023-05-10T13:55:00;101253.68;;;15.42;100.0
22775;BME280;11554;51.106;3.684;2023-05-10T14:00:00;101259.14;;;15.33;100.0
22775;BME280;11554;51.106;3.684;2023-05-10T14:05:00;101260.0;;;15.31;100.0
22775;BME280;11554;51.106;3.684;2023-05-10T14:10:00;101255.26999999999;;;15.29;100.0
22775;BME280;11554;51.106;3.684;2023-05-10T14:15:00;101255.36;;;15.19;100.0
22775;BME280;11554;51.106;3.684;2023-05-10T14:20:00;101252.15;;;15.32;100.0
22775;BME280;11554;51.106;3.684;2023-05-10T14:25:00;101254.38;;;15.23;100.0
22775;BME280;11554;51.106;3.684;2023-05-10T14:30:00;101252.53;;;15.12;100.0
22775;BME280;11554;51.106;3.684;2023-05-10T14:35:00;101255.11;;;15.16;100.0
22775;BME280;11554;51.106;3.684;2023-05-10T14:40:00;101254.35;;;15.35;100.0
22775;BME280;11554;51.106;3.684;2023-05-10T14:45:00;101253.68999999999;;;15.51;100.0
22775;BME280;11554;51.106;3.684;2023-05-10T14:50:00;101262.47;;;15.87;100.0
22775;BME280;11554;51.106;3.684;2023-05-10T14:55:00;101262.54000000001;;;16.10;100.0
22775;BME280;11554;51.106;3.684;2023-05-10T15:00:00;101261.44;;;16.10;99.72
22775;BME280;11554;51.106;3.684;2023-05-10T15:05:00;101263.01;;;16.30;100.0
22775;BME280;11554;51.106;3.684;2023-05-10T15:10:00;101259.41;;;16.23;100.0
22775;BME280;11554;51.106;3.684;2023-05-10T15:15:00;101265.83;;;16.19;98.91
22775;BME280;11554;51.106;3.684;2023-05-10T15:20:00;101270.65;;;16.24;99.81
22775;BME280;11554;51.106;3.684;2023-05-10T15:25:00;101268.95;;;16.35;98.44
22775;BME280;11554;51.106;3.684;2023-05-10T15:30:00;101272.02;;;16.71;97.43
22775;BME280;11554;51.106;3.684;2023-05-10T15:35:00;101274.97;;;17.31;94.55
22775;BME280;11554;51.106;3.684;2023-05-10T15:40:00;101271.26;;;18.58;88.9
22775;BME280;11554;51.106;3.684;2023-05-10T15:45:00;101278.92;;;19.12;88.23
22775;BME280;11554;51.106;3.684;2023-05-10T15:50:00;101288.36;;;19.63;89.07
22775;BME280;11554;51.106;3.684;2023-05-10T15:55:00;101290.37;;;18.79;85.4
22775;BME280;11554;51.106;3.684;2023-05-10T16:00:00;101295.03;;;18.73;88.84
22775;BME280;11554;51.106;3.684;2023-05-10T16:05:00;101299.8;;;18.61;87.93
22775;BME280;11554;51.106;3.684;2023-05-10T16:10:00;101301.15;;;18.47;88.44
22775;BME280;11554;51.106;3.684;2023-05-10T16:15:00;101304.3;;;18.53;88.35
22775;BME280;11554;51.106;3.684;2023-05-10T16:20:00;101302.12;;;18.40;85.82
22775;BME280;11554;51.106;3.684;2023-05-10T16:25:00;101310.20999999999;;;18.24;88.09
22775;BME280;11554;51.106;3.684;2023-05-10T16:30:00;101307.89;;;18.06;86.14
22775;BME280;11554;51.106;3.684;2023-05-10T16:35:00;101318.48;;;17.73;86.52
22775;BME280;11554;51.106;3.684;2023-05-10T16:40:00;101317.19;;;17.62;87.44
22775;BME280;11554;51.106;3.684;2023-05-10T16:45:00;101323.99;;;17.31;86.54
22775;BME280;11554;51.106;3.684;2023-05-10T16:50:00;101326.36;;;17.34;89.36
22775;BME280;11554;51.106;3.684;2023-05-10T16:55:00;101318.48;;;17.11;87.67
22775;BME280;11554;51.106;3.684;2023-05-10T17:00:00;101320.56;;;17.07;89.57
22775;BME280;11554;51.106;3.684;2023-05-10T17:05:00;101324.42;;;16.97;90.08
22775;BME280;11554;51.106;3.684;2023-05-10T17:10:00;101328.79000000001;;;16.79;90.66
22775;BME280;11554;51.106;3.684;2023-05-10T17:15:00;101328.5;;;16.68;91.07
22775;BME280;11554;51.106;3.684;2023-05-10T17:20:00;101332.64;;;16.31;90.84
22775;BME280;11554;51.106;3.684;2023-05-10T17:25:00;101334.19;;;16.21;91.99
22775;BME280;11554;51.106;3.684;2023-05-10T17:30:00;101332.01000000001;;;16.08;93.09
22775;BME280;11554;51.106;3.684;2023-05-10T17:35:01;101328.2;;;16.04;94.22
22775;BME280;11554;51.106;3.684;2023-05-10T17:40:00;101327.99;;;16.30;93.99
22775;BME280;11554;51.106;3.684;2023-05-10T17:45:00;101326.39;;;16.24;92.64
22775;BME280;11554;51.106;3.684;2023-05-10T17:50:00;101324.63;;;16.18;93.44
22775;BME280;11554;51.106;3.684;2023-05-10T17:55:00;101330.97;;;16.33;93.18
22775;BME280;11554;51.106;3.684;2023-05-10T18:00:00;101331.52;;;16.42;93.48
22775;BME280;11554;51.106;3.684;2023-05-10T18:05:00;101331.19;;;16.42;93.62
22775;BME280;11554;51.106;3.684;2023-05-10T18:10:00;101334.45;;;16.24;93.38
22775;BME280;11554;51.106;3.684;2023-05-10T18:15:00;101337.3;;;15.81;95.54
22775;BME280;11554;51.106;3.684;2023-05-10T18:20:00;101342.36;;;15.74;96.5
22775;BME280;11554;51.106;3.684;2023-05-10T18:25:00;101341.56;;;15.69;96.36
22775;BME280;11554;51.106;3.684;2023-05-10T18:30:00;101335.68000000001;;;15.50;96.9
22775;BME280;11554;51.106;3.684;2023-05-10T18:35:00;101333.90000000001;;;15.33;97.42
22775;BME280;11554;51.106;3.684;2023-05-10T18:40:00;101333.28;;;15.00;98.98
22775;BME280;11554;51.106;3.684;2023-05-10T18:45:00;101333.51;;;14.78;100.0
22775;BME280;11554;51.106;3.684;2023-05-10T18:50:01;101337.25;;;14.53;100.0
22775;BME280;11554;51.106;3.684;2023-05-10T18:55:00;101342.89;;;14.33;100.0
22775;BME280;11554;51.106;3.684;2023-05-10T19:00:00;101342.8;;;14.13;100.0
22775;BME280;11554;51.106;3.684;2023-05-10T19:05:00;101352.87;;;13.91;100.0
22775;BME280;11554;51.106;3.684;2023-05-10T19:10:00;101355.53;;;13.73;100.0
22775;BME280;11554;51.106;3.684;2023-05-10T19:15:00;101361.51999999999;;;13.56;100.0
22775;BME280;11554;51.106;3.684;2023-05-10T19:20:00;101360.22;;;13.37;100.0
22775;BME280;11554;51.106;3.684;2023-05-10T19:25:00;101365.91;;;13.23;100.0
22775;BME280;11554;51.106;3.684;2023-05-10T19:30:00;101370.17;;;13.04;100.0
22775;BME280;11554;51.106;3.684;2023-05-10T19:35:00;101381.91;;;12.80;100.0
22775;BME280;11554;51.106;3.684;2023-05-10T19:40:00;101389.22;;;12.59;100.0
22775;BME280;11554;51.106;3.684;2023-05-10T19:45:00;101404.97;;;12.46;100.0
22775;BME280;11554;51.106;3.684;2023-05-10T19:50:00;101409.31;;;12.41;100.0
22775;BME280;11554;51.106;3.684;2023-05-10T19:55:00;101407.12;;;12.37;100.0
22775;BME280;11554;51.106;3.684;2023-05-10T20:00:00;101415.52;;;12.32;100.0
22775;BME280;11554;51.106;3.684;2023-05-10T20:05:00;101421.26;;;12.27;100.0
22775;BME280;11554;51.106;3.684;2023-05-10T20:10:00;101420.7;;;12.25;100.0
22775;BME280;11554;51.106;3.684;2023-05-10T20:15:00;101422.34;;;12.17;100.0
22775;BME280;11554;51.106;3.684;2023-05-10T20:20:00;101419.36;;;12.09;100.0
22775;BME280;11554;51.106;3.684;2023-05-10T20:25:00;101418.87000000001;;;12.00;100.0
22775;BME280;11554;51.106;3.684;2023-05-10T20:30:00;101421.72;;;12.00;100.0
22775;BME280;11554;51.106;3.684;2023-05-10T20:35:00;101424.76000000001;;;11.93;100.0
22775;BME280;11554;51.106;3.684;2023-05-10T20:40:00;101427.64;;;11.93;100.0
22775;BME280;11554;51.106;3.684;2023-05-10T20:45:00;101428.85;;;11.89;100.0
22775;BME280;11554;51.106;3.684;2023-05-10T20:50:00;101426.11;;;11.87;100.0
22775;BME280;11554;51.106;3.684;2023-05-10T20:55:00;101423.8;;;11.80;100.0
22775;BME280;11554;51.106;3.684;2023-05-10T21:00:00;101417.31;;;11.68;100.0
22775;BME280;11554;51.106;3.684;2023-05-10T21:05:00;101414.11;;;11.62;100.0
22775;BME280;11554;51.106;3.684;2023-05-10T21:10:00;101412.23;;;11.53;100.0
22775;BME280;11554;51.106;3.684;2023-05-10T21:15:00;101413.36;;;11.51;100.0
22775;BME280;11554;51.106;3.684;2023-05-10T21:20:00;101411.77;;;11.44;100.0
22775;BME280;11554;51.106;3.684;2023-05-10T21:25:00;101411.19;;;11.37;100.0
22775;BME280;11554;51.106;3.684;2023-05-10T21:30:00;101410.6;;;11.33;100.0
22775;BME280;11554;51.106;3.684;2023-05-10T21:35:00;101411.61;;;11.27;100.0
22775;BME280;11554;51.106;3.684;2023-05-10T21:40:00;101412.72;;;11.19;100.0
22775;BME280;11554;51.106;3.684;2023-05-10T21:45:00;101410.86;;;11.13;100.0
22775;BME280;11554;51.106;3.684;2023-05-10T21:50:00;101410.03;;;11.07;100.0
22775;BME280;11554;51.106;3.684;2023-05-10T21:55:00;101411.35;;;10.98;100.0
22775;BME280;11554;51.106;3.684;2023-05-10T22:00:00;101409.51;;;10.83;100.0
22775;BME280;11554;51.106;3.684;2023-05-10T22:05:00;101409.74;;;10.75;100.0
22775;BME280;11554;51.106;3.684;2023-05-10T22:10:00;101409.99;;;10.78;100.0
22775;BME280;11554;51.106;3.684;2023-05-10T22:15:00;101413.33;;;10.72;100.0
22775;BME280;11554;51.106;3.684;2023-05-10T22:20:00;101412.45;;;10.71;100.0
22775;BME280;11554;51.106;3.684;2023-05-10T22:25:00;101414.31999999999;;;10.69;100.0
22775;BME280;11554;51.106;3.684;2023-05-10T22:30:00;101412.56;;;10.65;100.0
22775;BME280;11554;51.106;3.684;2023-05-10T22:35:00;101413.39;;;10.60;100.0
22775;BME280;11554;51.106;3.684;2023-05-10T22:40:00;101415.01;;;10.53;100.0
22775;BME280;11554;51.106;3.684;2023-05-10T22:45:00;101420.61;;;10.49;100.0
22775;BME280;11554;51.106;3.684;2023-05-10T22:50:00;101421.82;;;10.45;100.0
22775;BME280;11554;51.106;3.684;2023-05-10T22:55:00;101418.92;;;10.37;100.0
22775;BME280;11554;51.106;3.684;2023-05-10T23:00:00;101421.01;;;10.34;100.0
22775;BME280;11554;51.106;3.684;2023-05-10T23:05:00;101424.19;;;10.29;100.0
22775;BME280;11554;51.106;3.684;2023-05-10T23:10:00;101425.47;;;10.26;100.0
22775;BME280;11554;51.106;3.684;2023-05-10T23:15:00;101422.37;;;10.23;100.0
22775;BME280;11554;51.106;3.684;2023-05-10T23:20:00;101419.89;;;10.18;100.0
22775;BME280;11554;51.106;3.684;2023-05-10T23:25:00;101423.58;;;10.18;100.0
22775;BME280;11554;51.106;3.684;2023-05-10T23:30:00;101423.77;;;10.15;100.0
22775;BME280;11554;51.106;3.684;2023-05-10T23:35:00;101425.01999999999;;;10.13;100.0
22775;BME280;11554;51.106;3.684;2023-05-10T23:40:00;101423.46;;;10.09;100.0
22775;BME280;11554;51.106;3.684;2023-05-10T23:45:00;101427.89;;;10.04;100.0
22775;BME280;11554;51.106;3.684;2023-05-10T23:50:00;101427.76;;;10.06;100.0
22775;BME280;11554;51.106;3.684;2023-05-10T23:55:00;101429.63;;;10.05;100.0
